This is the latest recevied weather packets stored in our database for station/object KMASWX. If no packets are shown the sender has not sent any weather packets the latest 10 day(s).
| Time | Temp. | Humidity | Pressure | Rain* | Wind** | Luminosity | Snow |
|---|---|---|---|---|---|---|---|
| 1777735900 | 13.33° C | 54% | - | 0 mm | - | - | - |
| 1777735587 | 13.33° C | 56% | - | 0 mm | - | - | - |
| 1777735281 | 13.33° C | 55% | - | 0 mm | - | - | - |
| 1777734977 | 12.78° C | 56% | - | 0 mm | - | - | - |
| 1777734674 | 12.78° C | 57% | - | 0 mm | - | - | - |
| 1777734367 | 13.33° C | 59% | - | 0 mm | - | - | - |
| 1777733759 | 11.67° C | 62% | - | 0 mm | - | - | - |
| 1777733452 | 11.67° C | 63% | - | 0 mm | - | - | - |
| 1777733149 | 11.67° C | 63% | - | 0 mm | - | - | - |
| 1777732844 | 11.67° C | 63% | - | 0 mm | - | - | - |
| 1777732235 | 12.78° C | 60% | - | 0 mm | - | - | - |
| 1777731931 | 12.22° C | 63% | - | 0 mm | - | - | - |
| 1777731320 | 10.56° C | 67% | - | 0 mm | - | - | - |
| 1777730410 | 9.44° C | 69% | - | 0 mm | - | - | - |
| 1777730104 | 8.89° C | 70% | - | 0 mm | - | - | - |
| 1777729801 | 8.33° C | 71% | - | 0 mm | - | - | - |
| 1777729497 | 8.33° C | 70% | - | 0 mm | - | - | - |
| 1777729190 | 8.33° C | 70% | - | 0 mm | - | - | - |
| 1777728886 | 8.89° C | 70% | - | 0 mm | - | - | - |
| 1777728646 | 7.78° C | 71% | - | 0 mm | - | - | - |
| 1777728583 | 7.78° C | 71% | - | 0 mm | - | - | - |
| 1777728279 | 7.78° C | 71% | - | 0 mm | - | - | - |
| 1777727973 | 7.78° C | 70% | - | 0 mm | - | - | - |
| 1777727669 | 7.78° C | 70% | - | 0 mm | - | - | - |
| 1777727366 | 8.33° C | 68% | - | 0 mm | - | - | - |
* Rain latest 24 hours (hover to see other rain measurements)
** Current wind speed in m/s (hover to see current wind gust speed)